sensor_id;sensor_type;location;lat;lon;timestamp;pressure;altitude;pressure_sealevel;temperature;humidity
63808;BME280;49961;43.970;22.868;2023-04-27T00:00:52;101217.81;;;10.75;100.00
63808;BME280;49961;43.970;22.868;2023-04-27T00:01:53;101213.19;;;10.68;100.00
63808;BME280;49961;43.970;22.868;2023-04-27T00:02:53;101218.72;;;10.68;100.00
63808;BME280;49961;43.970;22.868;2023-04-27T00:03:53;101207.16;;;10.73;100.00
63808;BME280;49961;43.970;22.868;2023-04-27T00:04:54;101207.94;;;10.74;100.00
63808;BME280;49961;43.970;22.868;2023-04-27T00:05:56;101217.47;;;10.73;100.00
63808;BME280;49961;43.970;22.868;2023-04-27T00:06:56;101207.25;;;10.66;100.00
63808;BME280;49961;43.970;22.868;2023-04-27T00:07:57;101212.13;;;10.59;100.00
63808;BME280;49961;43.970;22.868;2023-04-27T00:08:57;101207.44;;;10.56;100.00
63808;BME280;49961;43.970;22.868;2023-04-27T00:09:58;101198.56;;;10.38;100.00
63808;BME280;49961;43.970;22.868;2023-04-27T00:10:59;101060.47;;;9.53;100.00
63808;BME280;49961;43.970;22.868;2023-04-27T00:11:59;101211.81;;;10.53;100.00
63808;BME280;49961;43.970;22.868;2023-04-27T00:13:00;101055.84;;;9.43;100.00
63808;BME280;49961;43.970;22.868;2023-04-27T00:14:01;101211.59;;;10.41;100.00
63808;BME280;49961;43.970;22.868;2023-04-27T00:15:01;101207.75;;;10.31;100.00
63808;BME280;49961;43.970;22.868;2023-04-27T00:16:01;101204.69;;;10.26;100.00
63808;BME280;49961;43.970;22.868;2023-04-27T00:17:02;101214.50;;;10.30;100.00
63808;BME280;49961;43.970;22.868;2023-04-27T00:18:03;101209.34;;;10.32;100.00
63808;BME280;49961;43.970;22.868;2023-04-27T00:19:03;101212.06;;;10.36;100.00
63808;BME280;49961;43.970;22.868;2023-04-27T00:20:04;101211.66;;;10.37;100.00
63808;BME280;49961;43.970;22.868;2023-04-27T00:21:07;101153.78;;;9.83;100.00
63808;BME280;49961;43.970;22.868;2023-04-27T00:22:08;101219.69;;;10.28;100.00
63808;BME280;49961;43.970;22.868;2023-04-27T00:23:08;101211.31;;;10.32;100.00
63808;BME280;49961;43.970;22.868;2023-04-27T00:24:09;101140.38;;;9.81;100.00
63808;BME280;49961;43.970;22.868;2023-04-27T00:25:09;101211.91;;;10.20;100.00
63808;BME280;49961;43.970;22.868;2023-04-27T00:26:10;101213.09;;;10.19;100.00
63808;BME280;49961;43.970;22.868;2023-04-27T00:27:11;101214.28;;;10.18;100.00
63808;BME280;49961;43.970;22.868;2023-04-27T00:28:12;101211.91;;;10.20;100.00
63808;BME280;49961;43.970;22.868;2023-04-27T00:29:12;101208.38;;;10.16;100.00
63808;BME280;49961;43.970;22.868;2023-04-27T00:30:13;101214.31;;;10.14;100.00
63808;BME280;49961;43.970;22.868;2023-04-27T00:31:13;101158.59;;;9.79;100.00
63808;BME280;49961;43.970;22.868;2023-04-27T00:32:14;101210.81;;;10.10;100.00
63808;BME280;49961;43.970;22.868;2023-04-27T00:33:15;101209.66;;;10.08;100.00
63808;BME280;49961;43.970;22.868;2023-04-27T00:34:16;101174.16;;;9.66;100.00
63808;BME280;49961;43.970;22.868;2023-04-27T00:35:16;101205.75;;;10.02;100.00
63808;BME280;49961;43.970;22.868;2023-04-27T00:36:17;101212.91;;;9.99;100.00
63808;BME280;49961;43.970;22.868;2023-04-27T00:37:17;101178.69;;;9.83;100.00
63808;BME280;49961;43.970;22.868;2023-04-27T00:38:18;101205.84;;;9.95;100.00
63808;BME280;49961;43.970;22.868;2023-04-27T00:39:19;101203.53;;;9.90;100.00
63808;BME280;49961;43.970;22.868;2023-04-27T00:40:20;101204.28;;;9.90;100.00
63808;BME280;49961;43.970;22.868;2023-04-27T00:41:20;101209.06;;;9.90;100.00
63808;BME280;49961;43.970;22.868;2023-04-27T00:42:22;101209.44;;;9.92;100.00
63808;BME280;49961;43.970;22.868;2023-04-27T00:43:24;101210.59;;;9.94;100.00
63808;BME280;49961;43.970;22.868;2023-04-27T00:44:25;101210.22;;;9.92;100.00
63808;BME280;49961;43.970;22.868;2023-04-27T00:45:25;101199.22;;;9.85;100.00
63808;BME280;49961;43.970;22.868;2023-04-27T00:46:26;101207.56;;;9.82;100.00
63808;BME280;49961;43.970;22.868;2023-04-27T00:47:29;101206.41;;;9.79;100.00
63808;BME280;49961;43.970;22.868;2023-04-27T00:48:29;101210.72;;;9.84;100.00
63808;BME280;49961;43.970;22.868;2023-04-27T00:49:30;101226.09;;;9.88;100.00
63808;BME280;49961;43.970;22.868;2023-04-27T00:50:31;101215.50;;;9.80;100.00
63808;BME280;49961;43.970;22.868;2023-04-27T00:51:32;101210.84;;;9.73;100.00
63808;BME280;49961;43.970;22.868;2023-04-27T00:52:32;101207.75;;;9.64;100.00
63808;BME280;49961;43.970;22.868;2023-04-27T00:53:35;101209.69;;;9.71;100.00
63808;BME280;49961;43.970;22.868;2023-04-27T00:54:35;101209.69;;;9.71;100.00
63808;BME280;49961;43.970;22.868;2023-04-27T00:55:36;101204.22;;;9.64;100.00
63808;BME280;49961;43.970;22.868;2023-04-27T00:56:36;101207.41;;;9.62;100.00
63808;BME280;49961;43.970;22.868;2023-04-27T00:57:37;101200.66;;;9.63;100.00
63808;BME280;49961;43.970;22.868;2023-04-27T00:58:38;101190.91;;;9.52;100.00
63808;BME280;49961;43.970;22.868;2023-04-27T00:59:38;101207.41;;;9.62;100.00
63808;BME280;49961;43.970;22.868;2023-04-27T01:00:39;101215.34;;;9.60;100.00
63808;BME280;49961;43.970;22.868;2023-04-27T01:01:40;101220.88;;;9.57;100.00
63808;BME280;49961;43.970;22.868;2023-04-27T01:02:41;101220.06;;;9.60;100.00
63808;BME280;49961;43.970;22.868;2023-04-27T01:03:41;101222.13;;;9.52;100.00
63808;BME280;49961;43.970;22.868;2023-04-27T01:04:42;101220.19;;;9.49;100.00
63808;BME280;49961;43.970;22.868;2023-04-27T01:05:42;101217.41;;;9.49;100.00
63808;BME280;49961;43.970;22.868;2023-04-27T01:06:43;101222.94;;;9.49;100.00
63808;BME280;49961;43.970;22.868;2023-04-27T01:07:43;101218.56;;;9.52;100.00
63808;BME280;49961;43.970;22.868;2023-04-27T01:08:44;101227.66;;;9.52;100.00
63808;BME280;49961;43.970;22.868;2023-04-27T01:09:45;101224.81;;;9.59;100.00
63808;BME280;49961;43.970;22.868;2023-04-27T01:10:46;101224.44;;;9.57;100.00
63808;BME280;49961;43.970;22.868;2023-04-27T01:11:49;101225.22;;;9.61;100.00
63808;BME280;49961;43.970;22.868;2023-04-27T01:12:49;101230.34;;;9.59;100.00
63808;BME280;49961;43.970;22.868;2023-04-27T01:13:50;101141.69;;;8.96;100.00
63808;BME280;49961;43.970;22.868;2023-04-27T01:14:51;101229.66;;;9.48;100.00
63808;BME280;49961;43.970;22.868;2023-04-27T01:15:51;101235.59;;;9.50;100.00
63808;BME280;49961;43.970;22.868;2023-04-27T01:16:51;101081.22;;;8.57;100.00
63808;BME280;49961;43.970;22.868;2023-04-27T01:17:59;101234.00;;;9.49;100.00
63808;BME280;49961;43.970;22.868;2023-04-27T01:19:00;101236.00;;;9.49;100.00
63808;BME280;49961;43.970;22.868;2023-04-27T01:20:01;101233.25;;;9.49;100.00
63808;BME280;49961;43.970;22.868;2023-04-27T01:21:01;101226.94;;;9.45;100.00
63808;BME280;49961;43.970;22.868;2023-04-27T01:22:02;101232.06;;;9.46;100.00
63808;BME280;49961;43.970;22.868;2023-04-27T01:23:02;101230.13;;;9.43;100.00
63808;BME280;49961;43.970;22.868;2023-04-27T01:24:05;101232.06;;;9.46;100.00
63808;BME280;49961;43.970;22.868;2023-04-27T01:25:06;101236.44;;;9.44;100.00
63808;BME280;49961;43.970;22.868;2023-04-27T01:26:07;101236.03;;;9.45;100.00
63808;BME280;49961;43.970;22.868;2023-04-27T01:27:07;101237.59;;;9.46;100.00
63808;BME280;49961;43.970;22.868;2023-04-27T01:28:08;101231.28;;;9.46;100.00
63808;BME280;49961;43.970;22.868;2023-04-27T01:29:08;101234.03;;;9.46;100.00
63808;BME280;49961;43.970;22.868;2023-04-27T01:30:09;101228.94;;;9.41;100.00
63808;BME280;49961;43.970;22.868;2023-04-27T01:31:10;101234.50;;;9.41;100.00
63808;BME280;49961;43.970;22.868;2023-04-27T01:32:10;101236.84;;;9.42;100.00
63808;BME280;49961;43.970;22.868;2023-04-27T01:33:12;101240.78;;;9.45;100.00
63808;BME280;49961;43.970;22.868;2023-04-27T01:34:12;101235.59;;;9.47;100.00
63808;BME280;49961;43.970;22.868;2023-04-27T01:35:12;101238.38;;;9.47;100.00
63808;BME280;49961;43.970;22.868;2023-04-27T01:36:13;101234.88;;;9.43;100.00
63808;BME280;49961;43.970;22.868;2023-04-27T01:37:13;101234.94;;;9.36;100.00
63808;BME280;49961;43.970;22.868;2023-04-27T01:38:14;101238.53;;;9.33;100.00
63808;BME280;49961;43.970;22.868;2023-04-27T01:39:15;101244.06;;;9.33;100.00
63808;BME280;49961;43.970;22.868;2023-04-27T01:40:15;101231.00;;;9.33;100.00
63808;BME280;49961;43.970;22.868;2023-04-27T01:41:16;101240.50;;;9.32;100.00
63808;BME280;49961;43.970;22.868;2023-04-27T01:42:16;101235.72;;;9.36;100.00
63808;BME280;49961;43.970;22.868;2023-04-27T01:43:17;101246.38;;;9.38;100.00
63808;BME280;49961;43.970;22.868;2023-04-27T01:44:17;101231.75;;;9.37;100.00
63808;BME280;49961;43.970;22.868;2023-04-27T01:45:20;101234.13;;;9.39;100.00
63808;BME280;49961;43.970;22.868;2023-04-27T01:46:20;101236.53;;;9.37;100.00
63808;BME280;49961;43.970;22.868;2023-04-27T01:47:21;101244.03;;;9.36;100.00
63808;BME280;49961;43.970;22.868;2023-04-27T01:48:21;101243.25;;;9.32;100.00
63808;BME280;49961;43.970;22.868;2023-04-27T01:49:22;101242.06;;;9.33;100.00
63808;BME280;49961;43.970;22.868;2023-04-27T01:50:22;101236.16;;;9.31;100.00
63808;BME280;49961;43.970;22.868;2023-04-27T01:51:22;101240.16;;;9.27;100.00
63808;BME280;49961;43.970;22.868;2023-04-27T01:52:23;101228.28;;;9.30;100.00
63808;BME280;49961;43.970;22.868;2023-04-27T01:53:23;101235.38;;;9.31;100.00
63808;BME280;49961;43.970;22.868;2023-04-27T01:54:24;101228.66;;;9.32;100.00
63808;BME280;49961;43.970;22.868;2023-04-27T01:55:24;101233.81;;;9.30;100.00
63808;BME280;49961;43.970;22.868;2023-04-27T01:56:24;101238.13;;;9.34;100.00
63808;BME280;49961;43.970;22.868;2023-04-27T01:57:25;101237.28;;;9.37;100.00
63808;BME280;49961;43.970;22.868;2023-04-27T01:58:26;101242.47;;;9.35;100.00
63808;BME280;49961;43.970;22.868;2023-04-27T01:59:27;101093.25;;;8.37;100.00
63808;BME280;49961;43.970;22.868;2023-04-27T02:00:27;101245.34;;;9.21;100.00
63808;BME280;49961;43.970;22.868;2023-04-27T02:01:28;101240.19;;;9.23;100.00
63808;BME280;49961;43.970;22.868;2023-04-27T02:02:30;101239.41;;;9.23;100.00
63808;BME280;49961;43.970;22.868;2023-04-27T02:03:30;101244.19;;;9.19;100.00
63808;BME280;49961;43.970;22.868;2023-04-27T02:04:31;101241.84;;;9.14;100.00
63808;BME280;49961;43.970;22.868;2023-04-27T02:05:31;101153.94;;;8.47;100.00
63808;BME280;49961;43.970;22.868;2023-04-27T02:06:31;101251.38;;;9.06;100.00
63808;BME280;49961;43.970;22.868;2023-04-27T02:07:32;101244.28;;;9.05;100.00
63808;BME280;49961;43.970;22.868;2023-04-27T02:08:33;101241.94;;;9.00;100.00
63808;BME280;49961;43.970;22.868;2023-04-27T02:09:34;101170.06;;;8.56;100.00
63808;BME280;49961;43.970;22.868;2023-04-27T02:10:34;101252.19;;;9.06;100.00
63808;BME280;49961;43.970;22.868;2023-04-27T02:11:35;101254.09;;;9.13;100.00
63808;BME280;49961;43.970;22.868;2023-04-27T02:12:35;101245.13;;;9.02;100.00
63808;BME280;49961;43.970;22.868;2023-04-27T02:13:36;101250.63;;;9.05;100.00
63808;BME280;49961;43.970;22.868;2023-04-27T02:14:37;101256.91;;;9.09;100.00
63808;BME280;49961;43.970;22.868;2023-04-27T02:15:37;101254.47;;;9.15;100.00
63808;BME280;49961;43.970;22.868;2023-04-27T02:16:37;101256.06;;;9.12;100.00
63808;BME280;49961;43.970;22.868;2023-04-27T02:17:38;101126.88;;;8.25;100.00
63808;BME280;49961;43.970;22.868;2023-04-27T02:18:39;101256.81;;;9.20;100.00
63808;BME280;49961;43.970;22.868;2023-04-27T02:19:39;101248.91;;;9.18;100.00
63808;BME280;49961;43.970;22.868;2023-04-27T02:20:39;101180.53;;;8.78;100.00
63808;BME280;49961;43.970;22.868;2023-04-27T02:21:40;101256.06;;;9.12;100.00
63808;BME280;49961;43.970;22.868;2023-04-27T02:22:41;101053.31;;;7.87;100.00
63808;BME280;49961;43.970;22.868;2023-04-27T02:23:45;101253.66;;;9.18;100.00
63808;BME280;49961;43.970;22.868;2023-04-27T02:24:45;101255.69;;;9.14;100.00
63808;BME280;49961;43.970;22.868;2023-04-27T02:25:45;101258.03;;;9.15;100.00
63808;BME280;49961;43.970;22.868;2023-04-27T02:26:46;101258.06;;;9.12;100.00
63808;BME280;49961;43.970;22.868;2023-04-27T02:27:46;101250.09;;;9.17;100.00
63808;BME280;49961;43.970;22.868;2023-04-27T02:28:47;101250.91;;;9.18;100.00
63808;BME280;49961;43.970;22.868;2023-04-27T02:29:49;101256.78;;;9.23;100.00
63808;BME280;49961;43.970;22.868;2023-04-27T02:30:49;101257.56;;;9.24;100.00
63808;BME280;49961;43.970;22.868;2023-04-27T02:31:49;101254.78;;;9.27;100.00
63808;BME280;49961;43.970;22.868;2023-04-27T02:32:50;101254.00;;;9.23;100.00
63808;BME280;49961;43.970;22.868;2023-04-27T02:33:51;101259.13;;;9.25;100.00
63808;BME280;49961;43.970;22.868;2023-04-27T02:34:51;101242.63;;;9.18;100.00
63808;BME280;49961;43.970;22.868;2023-04-27T02:35:52;101260.69;;;9.26;100.00
63808;BME280;49961;43.970;22.868;2023-04-27T02:36:52;101255.94;;;9.30;100.00
63808;BME280;49961;43.970;22.868;2023-04-27T02:37:52;101263.03;;;9.31;100.00
63808;BME280;49961;43.970;22.868;2023-04-27T02:38:53;101252.00;;;9.27;100.00
63808;BME280;49961;43.970;22.868;2023-04-27T02:39:54;101256.38;;;9.25;100.00
63808;BME280;49961;43.970;22.868;2023-04-27T02:40:54;101255.19;;;9.22;100.00
63808;BME280;49961;43.970;22.868;2023-04-27T02:41:55;101267.44;;;9.25;100.00
63808;BME280;49961;43.970;22.868;2023-04-27T02:42:55;101222.22;;;8.98;100.00
63808;BME280;49961;43.970;22.868;2023-04-27T02:43:56;101262.72;;;9.22;100.00
63808;BME280;49961;43.970;22.868;2023-04-27T02:44:56;101263.09;;;9.24;100.00
63808;BME280;49961;43.970;22.868;2023-04-27T02:46:01;101271.00;;;9.25;100.00
63808;BME280;49961;43.970;22.868;2023-04-27T02:47:02;101263.56;;;9.15;100.00
63808;BME280;49961;43.970;22.868;2023-04-27T02:48:02;101261.25;;;9.10;100.00
63808;BME280;49961;43.970;22.868;2023-04-27T02:49:03;101263.97;;;9.14;100.00
63808;BME280;49961;43.970;22.868;2023-04-27T02:50:04;101267.53;;;9.11;100.00
63808;BME280;49961;43.970;22.868;2023-04-27T02:51:04;101266.38;;;9.08;100.00
63808;BME280;49961;43.970;22.868;2023-04-27T02:52:06;101270.38;;;9.04;100.00
63808;BME280;49961;43.970;22.868;2023-04-27T02:53:07;101262.88;;;9.01;100.00
63808;BME280;49961;43.970;22.868;2023-04-27T02:54:08;101259.75;;;8.99;100.00
63808;BME280;49961;43.970;22.868;2023-04-27T02:55:08;101265.66;;;8.97;100.00
63808;BME280;49961;43.970;22.868;2023-04-27T02:56:09;101267.69;;;8.93;100.00
63808;BME280;49961;43.970;22.868;2023-04-27T02:57:09;101262.91;;;8.97;100.00
63808;BME280;49961;43.970;22.868;2023-04-27T02:58:10;101257.47;;;8.87;100.00
63808;BME280;49961;43.970;22.868;2023-04-27T02:59:10;101266.94;;;8.89;100.00
63808;BME280;49961;43.970;22.868;2023-04-27T03:00:11;101266.94;;;8.89;100.00
63808;BME280;49961;43.970;22.868;2023-04-27T03:01:11;101264.97;;;8.86;100.00
63808;BME280;49961;43.970;22.868;2023-04-27T03:02:12;101264.63;;;8.81;100.00
63808;BME280;49961;43.970;22.868;2023-04-27T03:03:12;101263.88;;;8.73;100.00
63808;BME280;49961;43.970;22.868;2023-04-27T03:04:12;101216.72;;;8.36;100.00
63808;BME280;49961;43.970;22.868;2023-04-27T03:05:14;101241.75;;;8.70;100.00
63808;BME280;49961;43.970;22.868;2023-04-27T03:06:15;101270.47;;;8.90;100.00
63808;BME280;49961;43.970;22.868;2023-04-27T03:07:15;101242.53;;;8.74;100.00
63808;BME280;49961;43.970;22.868;2023-04-27T03:08:15;101270.03;;;8.95;100.00
63808;BME280;49961;43.970;22.868;2023-04-27T03:09:16;101261.78;;;8.88;100.00
63808;BME280;49961;43.970;22.868;2023-04-27T03:10:16;101264.59;;;8.84;100.00
63808;BME280;49961;43.970;22.868;2023-04-27T03:11:17;101272.47;;;8.86;100.00
63808;BME280;49961;43.970;22.868;2023-04-27T03:12:17;101273.66;;;8.85;100.00
63808;BME280;49961;43.970;22.868;2023-04-27T03:13:18;101268.97;;;8.75;100.00
63808;BME280;49961;43.970;22.868;2023-04-27T03:14:18;101273.38;;;8.65;100.00
63808;BME280;49961;43.970;22.868;2023-04-27T03:15:18;101278.91;;;8.65;100.00
63808;BME280;49961;43.970;22.868;2023-04-27T03:16:19;101271.41;;;8.69;100.00
63808;BME280;49961;43.970;22.868;2023-04-27T03:17:19;101262.00;;;8.53;100.00
63808;BME280;49961;43.970;22.868;2023-04-27T03:18:20;101281.31;;;8.63;100.00
63808;BME280;49961;43.970;22.868;2023-04-27T03:19:20;101284.00;;;8.70;100.00
63808;BME280;49961;43.970;22.868;2023-04-27T03:20:21;101302.56;;;8.70;100.00
63808;BME280;49961;43.970;22.868;2023-04-27T03:21:21;101278.91;;;8.65;100.00
63808;BME280;49961;43.970;22.868;2023-04-27T03:22:22;101276.53;;;8.71;100.00
63808;BME280;49961;43.970;22.868;2023-04-27T03:23:22;101285.97;;;8.73;100.00
63808;BME280;49961;43.970;22.868;2023-04-27T03:24:23;101280.03;;;8.75;100.00
63808;BME280;49961;43.970;22.868;2023-04-27T03:25:24;101284.72;;;8.81;100.00
63808;BME280;49961;43.970;22.868;2023-04-27T03:26:25;101284.34;;;8.83;100.00
63808;BME280;49961;43.970;22.868;2023-04-27T03:27:25;101284.38;;;8.76;100.00
63808;BME280;49961;43.970;22.868;2023-04-27T03:28:26;101184.47;;;8.16;100.00
63808;BME280;49961;43.970;22.868;2023-04-27T03:29:26;101285.56;;;8.75;100.00
63808;BME280;49961;43.970;22.868;2023-04-27T03:30:27;101285.13;;;8.80;100.00
63808;BME280;49961;43.970;22.868;2023-04-27T03:31:27;101292.63;;;8.83;100.00
63808;BME280;49961;43.970;22.868;2023-04-27T03:32:28;101292.66;;;8.79;100.00
63808;BME280;49961;43.970;22.868;2023-04-27T03:33:28;101291.81;;;8.82;100.00
63808;BME280;49961;43.970;22.868;2023-04-27T03:34:29;101293.03;;;8.81;100.00
63808;BME280;49961;43.970;22.868;2023-04-27T03:35:29;101287.91;;;8.80;100.00
63808;BME280;49961;43.970;22.868;2023-04-27T03:36:30;101299.25;;;8.92;100.00
63808;BME280;49961;43.970;22.868;2023-04-27T03:37:31;101166.72;;;8.13;100.00
63808;BME280;49961;43.970;22.868;2023-04-27T03:38:32;101290.69;;;8.76;100.00
63808;BME280;49961;43.970;22.868;2023-04-27T03:39:33;101296.13;;;8.90;100.00
63808;BME280;49961;43.970;22.868;2023-04-27T03:40:33;101298.88;;;8.94;100.00
63808;BME280;49961;43.970;22.868;2023-04-27T03:41:33;101291.81;;;8.82;100.00
63808;BME280;49961;43.970;22.868;2023-04-27T03:42:34;101304.06;;;8.88;100.00
63808;BME280;49961;43.970;22.868;2023-04-27T03:43:34;101265.91;;;8.66;100.00
63808;BME280;49961;43.970;22.868;2023-04-27T03:44:35;101302.84;;;8.89;100.00
63808;BME280;49961;43.970;22.868;2023-04-27T03:45:35;101304.06;;;8.88;100.00
63808;BME280;49961;43.970;22.868;2023-04-27T03:46:36;101294.63;;;8.79;100.00
63808;BME280;49961;43.970;22.868;2023-04-27T03:47:36;101305.22;;;8.87;100.00
63808;BME280;49961;43.970;22.868;2023-04-27T03:48:37;101307.63;;;8.82;100.00
63808;BME280;49961;43.970;22.868;2023-04-27T03:49:37;101305.69;;;8.75;100.00
63808;BME280;49961;43.970;22.868;2023-04-27T03:50:37;101304.91;;;8.78;100.00
63808;BME280;49961;43.970;22.868;2023-04-27T03:51:38;101312.75;;;8.87;100.00
63808;BME280;49961;43.970;22.868;2023-04-27T03:52:41;101312.72;;;8.90;100.00
63808;BME280;49961;43.970;22.868;2023-04-27T03:53:41;101308.38;;;8.89;100.00
63808;BME280;49961;43.970;22.868;2023-04-27T03:54:42;101320.63;;;8.85;100.00
63808;BME280;49961;43.970;22.868;2023-04-27T03:55:43;101284.81;;;8.67;100.00
63808;BME280;49961;43.970;22.868;2023-04-27T03:56:44;101318.66;;;8.85;100.00
63808;BME280;49961;43.970;22.868;2023-04-27T03:57:44;101281.66;;;8.69;100.00
63808;BME280;49961;43.970;22.868;2023-04-27T03:58:45;101319.41;;;8.93;100.00
63808;BME280;49961;43.970;22.868;2023-04-27T03:59:45;101268.63;;;8.69;100.00
63808;BME280;49961;43.970;22.868;2023-04-27T04:00:46;101320.56;;;8.99;100.00
63808;BME280;49961;43.970;22.868;2023-04-27T04:01:46;101320.13;;;9.04;100.00
63808;BME280;49961;43.970;22.868;2023-04-27T04:02:47;101316.56;;;9.07;100.00
63808;BME280;49961;43.970;22.868;2023-04-27T04:03:47;101319.34;;;9.03;100.00
63808;BME280;49961;43.970;22.868;2023-04-27T04:04:48;101310.31;;;8.96;100.00
63808;BME280;49961;43.970;22.868;2023-04-27T04:05:48;101224.94;;;8.47;100.00
63808;BME280;49961;43.970;22.868;2023-04-27T04:06:48;101325.56;;;9.18;100.00
63808;BME280;49961;43.970;22.868;2023-04-27T04:07:49;101326.72;;;9.24;100.00
63808;BME280;49961;43.970;22.868;2023-04-27T04:08:49;101305.06;;;9.12;100.00
63808;BME280;49961;43.970;22.868;2023-04-27T04:09:50;101329.41;;;9.31;100.00
63808;BME280;49961;43.970;22.868;2023-04-27T04:10:50;101323.13;;;9.30;100.00
63808;BME280;49961;43.970;22.868;2023-04-27T04:11:51;101329.34;;;9.41;100.00
63808;BME280;49961;43.970;22.868;2023-04-27T04:12:52;101332.06;;;9.45;100.00
63808;BME280;49961;43.970;22.868;2023-04-27T04:13:52;101327.34;;;9.45;100.00
63808;BME280;49961;43.970;22.868;2023-04-27T04:14:52;101331.69;;;9.46;100.00
63808;BME280;49961;43.970;22.868;2023-04-27T04:16:03;101311.94;;;9.41;100.00
63808;BME280;49961;43.970;22.868;2023-04-27T04:17:04;101333.25;;;9.47;100.00
63808;BME280;49961;43.970;22.868;2023-04-27T04:18:04;101319.88;;;9.39;100.00
63808;BME280;49961;43.970;22.868;2023-04-27T04:19:05;101341.91;;;9.53;100.00
63808;BME280;49961;43.970;22.868;2023-04-27T04:20:06;101337.94;;;9.54;100.00
63808;BME280;49961;43.970;22.868;2023-04-27T04:21:08;101342.22;;;9.58;100.00
63808;BME280;49961;43.970;22.868;2023-04-27T04:22:10;101341.84;;;9.60;100.00
63808;BME280;49961;43.970;22.868;2023-04-27T04:23:11;101346.16;;;9.61;100.00
63808;BME280;49961;43.970;22.868;2023-04-27T04:24:11;101342.63;;;9.60;100.00
63808;BME280;49961;43.970;22.868;2023-04-27T04:25:11;101343.41;;;9.61;100.00
63808;BME280;49961;43.970;22.868;2023-04-27T04:26:12;101344.19;;;9.61;100.00
63808;BME280;49961;43.970;22.868;2023-04-27T04:27:12;101344.53;;;9.70;100.00
63808;BME280;49961;43.970;22.868;2023-04-27T04:28:13;101361.91;;;9.71;100.00
63808;BME280;49961;43.970;22.868;2023-04-27T04:29:13;101324.06;;;9.57;100.00
63808;BME280;49961;43.970;22.868;2023-04-27T04:30:14;101347.19;;;9.81;100.00
63808;BME280;49961;43.970;22.868;2023-04-27T04:31:15;101349.50;;;9.86;100.00
63808;BME280;49961;43.970;22.868;2023-04-27T04:32:17;101347.97;;;9.81;100.00
63808;BME280;49961;43.970;22.868;2023-04-27T04:33:19;101355.44;;;9.84;100.00
63808;BME280;49961;43.970;22.868;2023-04-27T04:34:19;101352.63;;;9.88;100.00
63808;BME280;49961;43.970;22.868;2023-04-27T04:35:19;101349.44;;;9.93;100.00
63808;BME280;49961;43.970;22.868;2023-04-27T04:36:20;101354.19;;;9.92;100.00
63808;BME280;49961;43.970;22.868;2023-04-27T04:37:22;101307.97;;;9.42;100.00
63808;BME280;49961;43.970;22.868;2023-04-27T04:38:22;101358.56;;;9.90;100.00
63808;BME280;49961;43.970;22.868;2023-04-27T04:39:22;101356.19;;;9.88;100.00
63808;BME280;49961;43.970;22.868;2023-04-27T04:40:23;101281.91;;;9.43;100.00
63808;BME280;49961;43.970;22.868;2023-04-27T04:41:24;101351.47;;;9.85;100.00
63808;BME280;49961;43.970;22.868;2023-04-27T04:42:24;101359.72;;;9.92;100.00
63808;BME280;49961;43.970;22.868;2023-04-27T04:43:25;101356.19;;;9.88;100.00
63808;BME280;49961;43.970;22.868;2023-04-27T04:44:25;101283.59;;;9.30;100.00
63808;BME280;49961;43.970;22.868;2023-04-27T04:45:26;101336.22;;;9.67;100.00
63808;BME280;49961;43.970;22.868;2023-04-27T04:46:27;101370.56;;;9.76;100.00
63808;BME280;49961;43.970;22.868;2023-04-27T04:47:29;101347.56;;;9.79;100.00
63808;BME280;49961;43.970;22.868;2023-04-27T04:48:33;101374.78;;;9.91;100.00
63808;BME280;49961;43.970;22.868;2023-04-27T04:49:33;101364.06;;;9.93;100.00
63808;BME280;49961;43.970;22.868;2023-04-27T04:50:34;101360.22;;;9.84;100.00
63808;BME280;49961;43.970;22.868;2023-04-27T04:51:35;101372.78;;;9.92;100.00
63808;BME280;49961;43.970;22.868;2023-04-27T04:52:35;101371.56;;;9.93;100.00
63808;BME280;49961;43.970;22.868;2023-04-27T04:53:36;101372.34;;;9.97;100.00
63808;BME280;49961;43.970;22.868;2023-04-27T04:54:37;101371.13;;;10.05;100.00
63808;BME280;49961;43.970;22.868;2023-04-27T04:55:37;101370.63;;;10.13;100.00
63808;BME280;49961;43.970;22.868;2023-04-27T04:56:38;101375.22;;;10.27;100.00
63808;BME280;49961;43.970;22.868;2023-04-27T04:57:38;101371.97;;;10.35;100.00
63808;BME280;49961;43.970;22.868;2023-04-27T04:58:39;101374.69;;;10.42;100.00
63808;BME280;49961;43.970;22.868;2023-04-27T04:59:39;101374.22;;;10.47;100.00
63808;BME280;49961;43.970;22.868;2023-04-27T05:00:40;101379.72;;;10.51;100.00
63808;BME280;49961;43.970;22.868;2023-04-27T05:01:40;101347.47;;;10.30;100.00
63808;BME280;49961;43.970;22.868;2023-04-27T05:02:41;101379.66;;;10.54;100.00
63808;BME280;49961;43.970;22.868;2023-04-27T05:03:41;101373.25;;;10.61;100.00
63808;BME280;49961;43.970;22.868;2023-04-27T05:04:42;101221.25;;;9.62;100.00
63808;BME280;49961;43.970;22.868;2023-04-27T05:05:42;101379.91;;;10.67;100.00
63808;BME280;49961;43.970;22.868;2023-04-27T05:06:43;101383.00;;;10.72;100.00
63808;BME280;49961;43.970;22.868;2023-04-27T05:07:43;101377.09;;;10.70;100.00
63808;BME280;49961;43.970;22.868;2023-04-27T05:08:44;101375.53;;;10.69;100.00
63808;BME280;49961;43.970;22.868;2023-04-27T05:09:44;101377.03;;;10.74;100.00
63808;BME280;49961;43.970;22.868;2023-04-27T05:10:49;101370.69;;;10.43;100.00
63808;BME280;49961;43.970;22.868;2023-04-27T05:11:49;101378.75;;;10.64;100.00
63808;BME280;49961;43.970;22.868;2023-04-27T05:12:50;101375.13;;;10.71;100.00